Time;durP1;ratioP1;P1;durP2;ratioP2;P2;SDS_P1;SDS_P2;PMS_P1;PMS_P2;Temp;Humidity;BMP_temperature;BMP_pressure;BME280_temperature;BME280_humidity;BME280_pressure;Samples;Min_cycle;Max_cycle;Signal;HPM_P1;HPM_P2
2022/10/16 00:01:18;;;;;;;14.52;3.58;;;12.30;99.90;;;;;;5133738;27;20409;-61
2022/10/16 00:03:46;;;;;;;8.03;2.50;;;12.20;99.90;;;;;;5134357;27;20051;-61
2022/10/16 00:06:14;;;;;;;4.97;2.50;;;12.30;99.90;;;;;;5114473;27;20047;-61
2022/10/16 00:08:41;;;;;;;4.80;2.13;;;12.30;99.90;;;;;;5115986;28;20047;-60
2022/10/16 00:11:10;;;;;;;7.00;1.90;;;12.30;99.90;;;;;;5133499;27;20055;-60
2022/10/16 00:13:40;;;;;;;4.00;1.95;;;12.30;99.90;;;;;;5114662;28;20047;-60
2022/10/16 00:16:07;;;;;;;6.75;2.53;;;12.30;99.90;;;;;;5115763;28;20047;-61
2022/10/16 00:18:36;;;;;;;5.95;2.08;;;12.20;99.90;;;;;;5115760;28;20116;-61
2022/10/16 00:21:04;;;;;;;4.60;1.98;;;12.30;99.90;;;;;;5126361;28;20050;-61
2022/10/16 00:23:32;;;;;;;6.65;2.08;;;12.30;99.90;;;;;;5113134;28;20055;-62
2022/10/16 00:26:01;;;;;;;3.78;1.92;;;12.20;99.90;;;;;;5111620;28;20127;-60
2022/10/16 00:28:27;;;;;;;6.05;2.53;;;12.30;99.90;;;;;;5111499;28;20495;-61
2022/10/16 00:30:56;;;;;;;9.15;2.25;;;12.30;99.90;;;;;;5111567;28;20055;-61
2022/10/16 00:33:23;;;;;;;3.92;2.00;;;12.20;99.90;;;;;;5113152;28;20058;-61
2022/10/16 00:35:50;;;;;;;5.28;2.17;;;12.20;99.90;;;;;;5111619;28;20051;-61
2022/10/16 00:38:18;;;;;;;9.05;2.33;;;12.20;99.90;;;;;;5111977;28;20134;-60
2022/10/16 00:40:45;;;;;;;7.05;1.90;;;12.30;99.90;;;;;;5112660;28;20498;-60
2022/10/16 00:43:35;;;;;;;8.77;2.45;;;12.30;99.90;;;;;;5112894;28;20062;-61
2022/10/16 00:46:05;;;;;;;3.15;1.80;;;12.30;99.90;;;;;;5112769;28;20491;-60
2022/10/16 00:48:32;;;;;;;4.20;1.75;;;12.30;99.90;;;;;;5117892;27;20051;-60
2022/10/16 00:51:00;;;;;;;7.35;2.15;;;12.30;99.90;;;;;;5137439;27;20406;-60
2022/10/16 00:53:28;;;;;;;7.57;2.00;;;12.40;99.90;;;;;;5119061;27;20107;-60
2022/10/16 00:55:55;;;;;;;8.45;1.75;;;12.40;99.90;;;;;;5117843;27;20055;-60
2022/10/16 00:58:22;;;;;;;5.93;1.70;;;12.40;99.90;;;;;;5119476;27;20559;-60
2022/10/16 01:00:49;;;;;;;7.10;2.13;;;12.40;99.90;;;;;;5136680;27;20081;-62
2022/10/16 01:03:29;;;;;;;4.53;1.70;;;12.40;99.90;;;;;;5114240;28;20051;-61
2022/10/16 01:06:14;;;;;;;8.07;2.45;;;12.40;99.90;;;;;;5116618;28;20479;-61
2022/10/16 01:08:50;;;;;;;4.38;1.45;;;12.40;99.90;;;;;;5117557;27;20100;-61
2022/10/16 01:11:23;;;;;;;3.70;1.58;;;12.40;99.90;;;;;;5136224;27;20065;-61
2022/10/16 01:13:56;;;;;;;4.95;1.95;;;12.40;99.90;;;;;;5118126;27;20410;-61
2022/10/16 01:16:31;;;;;;;4.75;1.45;;;12.40;99.90;;;;;;5136290;27;20184;-60
2022/10/16 01:19:09;;;;;;;8.52;2.13;;;12.40;99.90;;;;;;5118562;27;20059;-61
2022/10/16 01:21:40;;;;;;;5.38;1.58;;;12.40;99.90;;;;;;5137078;27;20491;-60
2022/10/16 01:24:12;;;;;;;6.38;1.70;;;12.40;99.90;;;;;;5118211;27;20055;-60
2022/10/16 01:26:54;;;;;;;3.88;1.55;;;12.40;99.90;;;;;;5137101;27;20039;-60
2022/10/16 01:29:27;;;;;;;4.00;1.52;;;12.50;99.90;;;;;;5097612;28;20639;-60
2022/10/16 01:31:59;;;;;;;5.40;2.05;;;12.50;99.90;;;;;;5115568;28;20544;-60
2022/10/16 01:34:33;;;;;;;5.32;1.80;;;12.50;99.90;;;;;;5116418;28;20047;-61
2022/10/16 01:37:06;;;;;;;4.20;1.60;;;12.50;99.90;;;;;;5115560;27;20736;-60
2022/10/16 01:39:36;;;;;;;4.45;1.73;;;12.40;99.90;;;;;;5114662;28;20510;-60
2022/10/16 01:42:09;;;;;;;4.78;1.65;;;12.40;99.90;;;;;;5115903;28;20060;-60
2022/10/16 01:44:39;;;;;;;6.63;1.85;;;12.40;99.90;;;;;;5114136;28;20059;-61
2022/10/16 01:47:09;;;;;;;5.63;1.80;;;12.40;99.90;;;;;;5114540;28;20104;-60
2022/10/16 01:49:39;;;;;;;6.07;1.70;;;12.40;99.90;;;;;;5115933;28;20051;-60
2022/10/16 01:52:08;;;;;;;4.63;1.80;;;12.50;99.90;;;;;;5112654;28;20343;-61
2022/10/16 01:54:38;;;;;;;5.38;2.53;;;12.50;99.90;;;;;;5097295;28;20108;-60
2022/10/16 01:57:06;;;;;;;4.75;1.67;;;12.60;99.90;;;;;;5115789;28;20504;-61
2022/10/16 01:59:36;;;;;;;4.10;1.70;;;12.60;99.90;;;;;;5114005;28;20044;-60
2022/10/16 02:02:09;;;;;;;3.67;1.87;;;12.60;99.90;;;;;;5135661;27;20112;-61
2022/10/16 02:04:39;;;;;;;3.75;1.52;;;12.60;99.90;;;;;;5136054;27;20276;-61
2022/10/16 02:07:06;;;;;;;2.92;1.50;;;12.70;99.90;;;;;;5117291;27;20133;-61
2022/10/16 02:09:35;;;;;;;5.35;1.52;;;12.70;99.90;;;;;;5117519;27;20406;-61
2022/10/16 02:12:09;;;;;;;6.50;2.08;;;12.70;99.90;;;;;;5117480;27;20095;-60
2022/10/16 02:14:39;;;;;;;5.13;1.63;;;12.80;99.90;;;;;;5135483;27;20100;-61
2022/10/16 02:17:13;;;;;;;7.43;1.95;;;12.80;99.90;;;;;;5136155;27;20070;-60
2022/10/16 02:19:40;;;;;;;8.00;2.05;;;12.90;99.90;;;;;;5117020;27;20406;-61
2022/10/16 02:22:11;;;;;;;7.28;1.75;;;12.90;99.90;;;;;;5135663;27;20047;-60
2022/10/16 02:24:43;;;;;;;5.20;1.77;;;12.90;99.90;;;;;;5117872;27;20103;-61
2022/10/16 02:27:17;;;;;;;8.25;2.25;;;12.90;99.90;;;;;;5135165;27;20046;-61
2022/10/16 02:29:50;;;;;;;4.72;1.60;;;12.90;99.90;;;;;;5113093;28;20056;-61
2022/10/16 02:32:24;;;;;;;4.55;1.38;;;12.90;99.90;;;;;;5114402;28;20043;-61
2022/10/16 02:34:52;;;;;;;8.60;2.30;;;12.90;99.90;;;;;;5114619;28;20048;-61
2022/10/16 02:37:19;;;;;;;9.43;2.28;;;13.00;99.90;;;;;;5113516;28;20059;-60
2022/10/16 02:39:46;;;;;;;5.00;1.65;;;13.00;99.90;;;;;;5114722;28;20491;-60
2022/10/16 02:42:13;;;;;;;3.95;1.63;;;13.00;99.90;;;;;;5095922;28;20495;-61
2022/10/16 02:44:41;;;;;;;3.80;1.60;;;13.00;99.90;;;;;;5115021;28;20052;-62
2022/10/16 02:47:08;;;;;;;5.07;1.63;;;13.00;99.90;;;;;;5114524;28;20132;-61
2022/10/16 02:49:36;;;;;;;3.80;1.85;;;13.00;99.90;;;;;;5114264;28;20059;-61
2022/10/16 02:52:03;;;;;;;4.65;1.65;;;13.00;99.90;;;;;;5114371;28;20052;-61
2022/10/16 02:54:30;;;;;;;4.65;2.08;;;13.00;99.90;;;;;;5096399;28;20055;-61
2022/10/16 02:56:57;;;;;;;4.10;1.83;;;13.00;99.90;;;;;;5105901;27;20059;-61
2022/10/16 02:59:24;;;;;;;3.05;1.52;;;13.00;99.90;;;;;;5134861;27;20051;-61
2022/10/16 03:01:51;;;;;;;4.47;1.77;;;13.00;99.90;;;;;;5134019;27;20046;-62
2022/10/16 03:04:18;;;;;;;3.50;1.58;;;13.00;99.90;;;;;;5134265;27;20054;-60
2022/10/16 03:06:46;;;;;;;3.35;1.42;;;13.00;99.90;;;;;;5134871;27;20043;-62
2022/10/16 03:09:13;;;;;;;4.03;1.35;;;13.00;99.90;;;;;;5115965;27;20155;-60
2022/10/16 03:11:40;;;;;;;4.53;1.83;;;13.00;99.90;;;;;;5134411;27;20355;-60
2022/10/16 03:14:07;;;;;;;3.75;1.63;;;13.00;99.90;;;;;;5116170;27;20490;-60
2022/10/16 03:16:34;;;;;;;7.22;1.77;;;13.00;99.90;;;;;;5115719;27;20054;-60
2022/10/16 03:19:01;;;;;;;4.32;1.92;;;13.00;99.90;;;;;;5134772;27;20386;-60
2022/10/16 03:21:27;;;;;;;5.45;1.58;;;13.10;99.90;;;;;;5134455;27;20047;-61
2022/10/16 03:23:56;;;;;;;3.53;1.58;;;13.10;99.90;;;;;;5133205;27;20047;-62
2022/10/16 03:26:23;;;;;;;3.92;1.55;;;13.00;99.90;;;;;;5134536;27;20445;-61
2022/10/16 03:28:49;;;;;;;4.20;1.70;;;13.00;99.90;;;;;;5134298;27;20047;-61
2022/10/16 03:31:16;;;;;;;6.20;1.85;;;13.00;99.90;;;;;;5115717;27;20051;-61
2022/10/16 03:33:43;;;;;;;2.30;1.30;;;13.00;99.90;;;;;;5134023;27;20055;-61
2022/10/16 03:36:10;;;;;;;4.72;1.70;;;13.00;99.90;;;;;;5134430;27;20039;-61
2022/10/16 03:38:37;;;;;;;4.38;1.83;;;13.00;99.90;;;;;;5115567;27;20509;-61
2022/10/16 03:41:07;;;;;;;3.47;1.20;;;13.00;99.90;;;;;;5134149;27;20055;-61
2022/10/16 03:43:34;;;;;;;3.50;1.90;;;13.00;99.90;;;;;;5115586;27;20130;-60
2022/10/16 03:46:01;;;;;;;6.43;1.65;;;12.90;99.90;;;;;;5119468;27;20446;-61
2022/10/16 03:48:28;;;;;;;4.43;1.77;;;12.90;99.90;;;;;;5113418;28;20054;-62
2022/10/16 03:50:55;;;;;;;3.90;1.67;;;12.80;99.90;;;;;;5113088;28;20510;-60
2022/10/16 03:53:22;;;;;;;3.08;1.83;;;12.80;99.90;;;;;;5111423;28;20491;-61
2022/10/16 03:55:49;;;;;;;6.30;1.83;;;12.80;99.90;;;;;;5113666;28;20054;-62
2022/10/16 03:58:17;;;;;;;2.90;1.27;;;12.80;99.90;;;;;;5094774;28;20048;-61
2022/10/16 04:00:46;;;;;;;4.03;1.77;;;12.80;99.90;;;;;;5095380;28;20051;-61
2022/10/16 04:03:13;;;;;;;6.20;1.58;;;12.80;99.90;;;;;;5113393;28;20502;-61
2022/10/16 04:05:40;;;;;;;3.50;1.60;;;12.70;99.90;;;;;;5112722;28;20116;-60
2022/10/16 04:08:07;;;;;;;6.03;2.20;;;12.70;99.90;;;;;;5113473;28;20053;-60
2022/10/16 04:10:33;;;;;;;4.57;1.92;;;12.60;99.90;;;;;;5113094;28;20047;-60
2022/10/16 04:13:01;;;;;;;2.90;1.50;;;12.60;99.90;;;;;;5112661;28;20044;-61
2022/10/16 04:15:29;;;;;;;3.40;1.75;;;12.50;99.90;;;;;;5095437;28;20062;-60
2022/10/16 04:17:56;;;;;;;6.28;1.88;;;12.50;99.90;;;;;;5113242;28;20169;-60
2022/10/16 04:20:23;;;;;;;3.40;2.05;;;12.40;99.90;;;;;;5112727;28;20421;-61
2022/10/16 04:22:50;;;;;;;3.25;1.70;;;12.40;99.90;;;;;;5114046;28;20100;-61
2022/10/16 04:25:17;;;;;;;3.53;1.40;;;12.40;99.90;;;;;;5116385;28;20052;-62
2022/10/16 04:27:44;;;;;;;3.45;1.65;;;12.30;99.90;;;;;;5116900;28;20513;-61
2022/10/16 04:30:11;;;;;;;4.68;1.85;;;12.30;99.90;;;;;;5117535;28;20051;-61
2022/10/16 04:32:39;;;;;;;4.13;1.70;;;12.40;99.90;;;;;;5116136;28;20184;-62
2022/10/16 04:35:07;;;;;;;5.43;1.70;;;12.40;99.90;;;;;;5115673;28;20092;-62
2022/10/16 04:37:34;;;;;;;4.57;1.90;;;12.40;99.90;;;;;;5117359;28;20052;-62
2022/10/16 04:40:02;;;;;;;4.93;2.20;;;12.40;99.90;;;;;;5116858;28;20052;-60
2022/10/16 04:42:28;;;;;;;3.05;1.48;;;12.30;99.90;;;;;;5116296;28;20131;-60
2022/10/16 04:44:55;;;;;;;3.70;1.60;;;12.40;99.90;;;;;;5116129;28;20475;-60
2022/10/16 04:47:22;;;;;;;4.63;1.58;;;12.40;99.90;;;;;;5116300;28;20043;-61
2022/10/16 04:49:50;;;;;;;5.25;1.85;;;12.40;99.90;;;;;;5114901;28;20051;-62
2022/10/16 04:52:18;;;;;;;3.72;1.52;;;12.50;99.90;;;;;;5115648;28;20059;-62
2022/10/16 04:54:46;;;;;;;3.83;1.83;;;12.50;99.90;;;;;;5116141;28;20043;-62
2022/10/16 04:57:12;;;;;;;4.03;1.85;;;12.60;99.90;;;;;;5116551;28;20479;-61
2022/10/16 04:59:39;;;;;;;4.10;2.08;;;12.60;99.90;;;;;;5116456;28;20092;-61
2022/10/16 05:02:06;;;;;;;5.60;2.58;;;12.60;99.90;;;;;;5116176;28;20100;-61
2022/10/16 05:04:33;;;;;;;3.25;1.85;;;12.60;99.90;;;;;;5098780;28;20048;-60
2022/10/16 05:07:01;;;;;;;11.70;2.13;;;12.60;99.90;;;;;;5116377;28;20048;-61
2022/10/16 05:09:28;;;;;;;5.97;1.85;;;12.60;99.90;;;;;;5115925;28;20048;-61
2022/10/16 05:11:55;;;;;;;4.90;2.03;;;12.60;99.90;;;;;;5116429;28;20403;-61
2022/10/16 05:14:22;;;;;;;4.45;1.95;;;12.60;99.90;;;;;;5097000;28;20411;-61
2022/10/16 05:16:49;;;;;;;4.57;1.60;;;12.70;99.90;;;;;;5123526;27;20047;-62
2022/10/16 05:19:16;;;;;;;4.32;1.98;;;12.60;99.90;;;;;;5118484;27;20440;-62
2022/10/16 05:21:42;;;;;;;3.22;1.70;;;12.70;99.90;;;;;;5118329;27;20054;-62
2022/10/16 05:24:11;;;;;;;6.15;2.50;;;12.70;99.90;;;;;;5117575;27;20047;-61
2022/10/16 05:26:38;;;;;;;6.25;2.20;;;12.60;99.90;;;;;;5137002;27;20043;-61
2022/10/16 05:29:05;;;;;;;4.50;2.40;;;12.60;99.90;;;;;;5118381;27;20047;-62
2022/10/16 05:31:31;;;;;;;8.85;1.90;;;12.60;99.90;;;;;;5117861;27;20051;-62
2022/10/16 05:34:00;;;;;;;5.05;2.20;;;12.60;99.90;;;;;;5118463;27;20050;-61
2022/10/16 05:36:27;;;;;;;6.68;2.35;;;12.60;99.90;;;;;;5136014;27;20130;-62
2022/10/16 05:38:54;;;;;;;6.25;2.70;;;12.60;99.90;;;;;;5118597;27;20096;-61
2022/10/16 05:41:25;;;;;;;8.50;2.00;;;12.60;99.90;;;;;;5136367;27;20104;-61
2022/10/16 05:43:52;;;;;;;4.30;2.00;;;12.50;99.90;;;;;;5134292;27;20043;-61
2022/10/16 05:46:19;;;;;;;4.35;1.95;;;12.50;99.90;;;;;;5115645;28;20063;-62
2022/10/16 05:48:46;;;;;;;6.82;2.17;;;12.50;99.90;;;;;;5115647;28;20051;-61
2022/10/16 05:51:14;;;;;;;2.92;1.92;;;12.50;99.90;;;;;;5115164;28;20122;-61
2022/10/16 05:53:42;;;;;;;5.05;2.20;;;12.60;99.90;;;;;;5114243;28;20093;-61
2022/10/16 05:56:11;;;;;;;3.47;1.83;;;12.60;99.90;;;;;;5115455;28;20048;-61
2022/10/16 05:58:41;;;;;;;5.55;2.00;;;12.60;99.90;;;;;;5114910;27;20116;-62
2022/10/16 06:01:10;;;;;;;3.80;2.35;;;12.60;99.90;;;;;;5131429;27;20090;-62
2022/10/16 06:03:38;;;;;;;7.37;2.70;;;12.60;99.90;;;;;;5135892;27;20050;-61
2022/10/16 06:06:13;;;;;;;4.95;2.40;;;12.60;99.90;;;;;;5117098;27;20043;-61
2022/10/16 06:08:40;;;;;;;8.70;2.15;;;12.60;99.90;;;;;;5136099;27;20048;-61
2022/10/16 06:11:09;;;;;;;7.32;2.45;;;12.60;99.90;;;;;;5135782;27;20055;-60
2022/10/16 06:13:36;;;;;;;5.47;2.38;;;12.60;99.90;;;;;;5119619;27;20502;-61
2022/10/16 06:16:05;;;;;;;10.20;2.25;;;12.60;99.90;;;;;;5114909;28;20048;-63
2022/10/16 06:18:32;;;;;;;5.68;2.85;;;12.60;99.90;;;;;;5115118;28;20043;-61
2022/10/16 06:20:59;;;;;;;4.97;2.88;;;12.60;99.90;;;;;;5115233;28;20063;-61
2022/10/16 06:23:26;;;;;;;6.82;3.05;;;12.60;99.90;;;;;;5114295;28;20517;-61
2022/10/16 06:25:53;;;;;;;7.00;3.85;;;12.70;99.90;;;;;;5113656;27;20770;-60
2022/10/16 06:28:20;;;;;;;5.13;2.92;;;12.70;99.90;;;;;;5112119;28;20035;-60
2022/10/16 06:30:47;;;;;;;5.38;2.28;;;12.80;99.90;;;;;;5112849;28;20699;-61
2022/10/16 06:33:15;;;;;;;5.63;2.80;;;12.80;99.90;;;;;;5094463;28;20388;-62
2022/10/16 06:35:42;;;;;;;5.53;3.08;;;12.90;99.90;;;;;;5094779;28;20491;-61
2022/10/16 06:38:09;;;;;;;8.25;2.67;;;12.80;99.90;;;;;;5095369;28;20486;-61
2022/10/16 06:40:35;;;;;;;6.18;3.20;;;12.90;99.90;;;;;;5090341;28;20051;-61
2022/10/16 06:43:02;;;;;;;7.80;2.65;;;12.80;99.90;;;;;;5091908;28;20055;-61
2022/10/16 06:45:29;;;;;;;6.93;2.70;;;12.90;99.90;;;;;;5090265;28;20047;-61
2022/10/16 06:47:56;;;;;;;4.32;2.97;;;12.90;99.90;;;;;;5092290;28;20509;-62
2022/10/16 06:50:24;;;;;;;8.40;2.90;;;12.90;99.90;;;;;;5092817;28;20040;-61
2022/10/16 06:52:51;;;;;;;7.90;2.40;;;13.00;99.90;;;;;;5092044;28;20048;-61
2022/10/16 06:55:18;;;;;;;4.55;2.33;;;13.00;99.90;;;;;;5092564;28;20060;-60
2022/10/16 06:57:47;;;;;;;5.60;2.20;;;13.00;99.90;;;;;;5092796;28;20048;-60
2022/10/16 07:00:14;;;;;;;9.13;2.30;;;13.10;99.90;;;;;;5093078;28;20044;-60
2022/10/16 07:02:41;;;;;;;4.22;2.20;;;13.10;99.90;;;;;;5090618;28;20044;-62
2022/10/16 07:05:08;;;;;;;5.57;2.22;;;13.10;99.90;;;;;;5091716;28;20044;-61
2022/10/16 07:07:37;;;;;;;4.55;1.98;;;13.20;99.90;;;;;;5091611;28;20044;-61
2022/10/16 07:10:04;;;;;;;8.00;2.78;;;13.20;99.90;;;;;;5089921;28;20063;-62
2022/10/16 07:12:32;;;;;;;5.20;2.17;;;13.20;99.90;;;;;;5090438;28;20048;-61
2022/10/16 07:14:59;;;;;;;4.90;1.98;;;13.20;99.90;;;;;;5090125;28;20109;-60
2022/10/16 07:17:25;;;;;;;8.55;2.38;;;13.20;99.90;;;;;;5092637;28;20105;-60
2022/10/16 07:19:53;;;;;;;6.18;2.00;;;13.30;99.90;;;;;;5090777;28;20055;-60
2022/10/16 07:22:20;;;;;;;4.40;1.98;;;13.40;99.90;;;;;;5091515;28;20071;-61
2022/10/16 07:24:48;;;;;;;6.35;2.58;;;13.40;99.90;;;;;;5090293;28;20561;-60
2022/10/16 07:27:16;;;;;;;4.82;1.95;;;13.40;99.90;;;;;;5091641;28;20047;-60
2022/10/16 07:29:43;;;;;;;3.78;1.75;;;13.50;99.90;;;;;;5091571;28;20048;-61
2022/10/16 07:32:10;;;;;;;6.40;2.10;;;13.50;99.90;;;;;;5091743;28;20101;-61
2022/10/16 07:34:36;;;;;;;8.43;2.67;;;13.50;99.90;;;;;;5091498;28;20047;-61
2022/10/16 07:37:03;;;;;;;7.63;2.10;;;13.50;99.90;;;;;;5097134;28;20048;-60
2022/10/16 07:39:30;;;;;;;4.20;2.10;;;13.40;99.90;;;;;;5089985;28;20048;-61
2022/10/16 07:41:58;;;;;;;6.53;2.03;;;13.30;99.90;;;;;;5105476;28;20052;-61
2022/10/16 07:44:25;;;;;;;4.85;2.10;;;13.30;99.90;;;;;;5113698;27;20398;-61
2022/10/16 07:46:52;;;;;;;5.20;2.00;;;12.80;99.90;;;;;;5092882;28;20047;-61
2022/10/16 07:49:19;;;;;;;5.95;2.50;;;13.30;99.90;;;;;;5115000;27;20059;-60
2022/10/16 07:51:46;;;;;;;3.92;2.25;;;13.30;99.90;;;;;;5092742;28;20058;-61
2022/10/16 07:54:13;;;;;;;5.70;2.10;;;13.30;99.90;;;;;;5093875;28;20096;-61
2022/10/16 07:56:40;;;;;;;3.88;2.17;;;13.30;99.90;;;;;;5110752;28;20047;-61
2022/10/16 07:59:08;;;;;;;6.60;2.92;;;13.30;99.90;;;;;;5094917;28;20096;-60
2022/10/16 08:01:35;;;;;;;5.38;2.75;;;13.30;99.90;;;;;;5093107;28;20396;-61
2022/10/16 08:04:02;;;;;;;4.85;2.15;;;13.30;99.90;;;;;;5111472;28;20049;-61
2022/10/16 08:06:28;;;;;;;8.13;2.45;;;13.40;99.90;;;;;;5111315;28;20047;-61
2022/10/16 08:08:56;;;;;;;6.85;2.45;;;13.70;99.90;;;;;;5112035;28;20047;-61
2022/10/16 08:11:23;;;;;;;6.90;2.35;;;14.40;99.90;;;;;;5092075;28;20534;-60
2022/10/16 08:13:50;;;;;;;6.57;2.42;;;14.70;99.90;;;;;;5096387;28;20093;-61
2022/10/16 08:16:18;;;;;;;3.67;1.90;;;15.80;99.90;;;;;;5110744;28;20092;-61
2022/10/16 08:18:45;;;;;;;4.00;2.40;;;17.10;99.90;;;;;;5110794;28;20051;-61
2022/10/16 08:21:14;;;;;;;4.70;1.90;;;18.30;99.90;;;;;;5093110;28;20108;-60
2022/10/16 08:23:41;;;;;;;5.68;2.20;;;18.70;99.90;;;;;;5092708;28;20101;-60
2022/10/16 08:26:09;;;;;;;4.13;2.05;;;18.80;99.90;;;;;;5093188;28;20047;-60
2022/10/16 08:28:36;;;;;;;9.95;1.73;;;19.00;99.90;;;;;;5094677;28;20554;-61
2022/10/16 08:31:08;;;;;;;3.83;1.42;;;19.40;99.90;;;;;;5092516;28;20563;-62
2022/10/16 08:33:37;;;;;;;6.97;1.63;;;19.80;99.90;;;;;;5092909;28;20109;-60
2022/10/16 08:36:05;;;;;;;3.75;1.58;;;20.50;99.90;;;;;;5092918;28;20132;-61
2022/10/16 08:38:32;;;;;;;4.65;1.75;;;21.10;99.90;;;;;;5111055;28;20046;-61
2022/10/16 08:41:16;;;;;;;5.40;1.60;;;21.50;99.90;;;;;;5096694;28;20064;-61
2022/10/16 08:44:05;;;;;;;4.15;1.48;;;22.10;99.90;;;;;;5111515;28;20388;-61
2022/10/16 08:46:44;;;;;;;4.78;1.60;;;22.30;99.90;;;;;;5110531;28;20047;-61
2022/10/16 08:49:14;;;;;;;4.10;1.20;;;22.50;99.90;;;;;;5110123;28;20097;-61
2022/10/16 08:51:42;;;;;;;4.97;1.25;;;22.50;99.90;;;;;;5110238;28;20039;-61
2022/10/16 08:54:23;;;;;;;6.30;1.55;;;21.50;99.90;;;;;;5109849;28;20070;-61
2022/10/16 08:56:49;;;;;;;;;;;20.50;99.90;;;;;;5113291;28;20116;-61
2022/10/16 08:59:17;;;;;;;5.78;1.40;;;19.60;99.90;;;;;;5113081;28;19923;-61
2022/10/16 09:01:47;;;;;;;4.28;1.17;;;19.00;99.90;;;;;;5111567;28;20039;-62
2022/10/16 09:04:45;;;;;;;5.67;1.57;;;18.50;99.90;;;;;;5110609;28;20044;-61
2022/10/16 09:07:19;;;;;;;4.63;1.83;;;18.20;99.90;;;;;;5096214;28;20858;-61
2022/10/16 09:10:04;;;;;;;5.28;2.05;;;18.60;99.90;;;;;;5113534;28;20097;-61
2022/10/16 09:12:37;;;;;;;3.03;1.27;;;18.30;99.90;;;;;;5114374;27;20047;-61
2022/10/16 09:15:18;;;;;;;5.18;1.30;;;18.40;99.90;;;;;;5113724;28;20119;-61
2022/10/16 09:17:53;;;;;;;5.53;1.45;;;18.50;99.90;;;;;;5105262;27;20123;-61
2022/10/16 09:20:36;;;;;;;6.28;1.90;;;18.70;99.90;;;;;;5100512;27;20092;-59
2022/10/16 09:23:18;;;;;;;3.97;1.58;;;18.60;99.90;;;;;;5120081;27;20055;-61
2022/10/16 09:25:48;;;;;;;8.00;1.98;;;18.20;99.90;;;;;;5105017;27;20055;-61
2022/10/16 09:28:16;;;;;;;3.97;1.45;;;18.10;99.90;;;;;;5099662;28;20556;-61
2022/10/16 09:30:43;;;;;;;6.22;1.70;;;17.90;99.90;;;;;;5100944;28;20194;-61
2022/10/16 09:33:12;;;;;;;7.18;1.70;;;18.90;99.90;;;;;;5119465;27;20047;-62
2022/10/16 09:35:42;;;;;;;3.65;1.90;;;20.00;99.90;;;;;;5120157;27;20047;-60
2022/10/16 09:38:10;;;;;;;7.85;2.00;;;19.90;99.90;;;;;;5102759;27;20096;-61
2022/10/16 09:40:39;;;;;;;5.68;2.03;;;19.60;99.90;;;;;;5101811;28;20060;-61
2022/10/16 09:43:21;;;;;;;6.57;1.92;;;19.80;99.90;;;;;;5102162;27;20048;-62
2022/10/16 09:45:56;;;;;;;6.43;1.77;;;20.60;99.90;;;;;;5101705;27;20380;-62
2022/10/16 09:48:24;;;;;;;6.72;1.98;;;20.60;99.90;;;;;;5120495;27;20050;-62
2022/10/16 09:50:59;;;;;;;7.70;1.77;;;20.10;99.90;;;;;;5101218;27;20048;-61
2022/10/16 09:53:39;;;;;;;9.65;2.35;;;20.30;99.90;;;;;;5123484;27;20039;-62
2022/10/16 09:56:06;;;;;;;6.85;2.13;;;20.80;99.90;;;;;;5104553;27;20056;-61
2022/10/16 09:58:33;;;;;;;9.30;2.08;;;21.80;99.90;;;;;;5120921;27;20043;-61
2022/10/16 10:01:01;;;;;;;8.40;2.22;;;23.10;99.90;;;;;;5102272;27;20055;-61
2022/10/16 10:03:40;;;;;;;7.40;2.30;;;23.40;99.90;;;;;;5095409;28;20051;-60
2022/10/16 10:06:19;;;;;;;7.25;2.15;;;23.90;99.90;;;;;;5118931;27;20051;-60
2022/10/16 10:09:01;;;;;;;8.05;1.98;;;24.60;98.90;;;;;;5115808;27;20814;-61
2022/10/16 10:11:50;;;;;;;8.00;2.22;;;24.90;97.30;;;;;;5094616;28;20054;-60
2022/10/16 10:14:31;;;;;;;8.80;2.08;;;23.50;95.50;;;;;;5103885;27;20051;-61
2022/10/16 10:17:20;;;;;;;5.63;2.00;;;23.00;97.40;;;;;;5094458;28;20059;-62
2022/10/16 10:19:52;;;;;;;11.00;2.88;;;23.40;97.30;;;;;;5109858;27;20533;-61
2022/10/16 10:22:25;;;;;;;8.60;1.90;;;24.10;97.20;;;;;;5114323;28;20044;-61
2022/10/16 10:24:56;;;;;;;9.85;2.13;;;24.50;95.60;;;;;;5114404;27;20056;-61
2022/10/16 10:27:32;;;;;;;10.23;2.53;;;24.80;95.00;;;;;;5113114;28;20096;-62
2022/10/16 10:30:07;;;;;;;8.15;2.25;;;25.20;95.90;;;;;;5115395;27;20096;-61
2022/10/16 10:32:41;;;;;;;9.40;2.78;;;25.40;95.40;;;;;;5093689;28;20507;-60
2022/10/16 10:35:16;;;;;;;8.23;2.42;;;24.60;93.00;;;;;;5113308;28;20039;-61
2022/10/16 10:37:59;;;;;;;8.00;2.38;;;25.20;92.10;;;;;;5094750;28;20449;-61
2022/10/16 10:40:35;;;;;;;6.97;1.77;;;25.20;90.20;;;;;;5113342;27;20074;-61
2022/10/16 10:43:11;;;;;;;12.27;2.47;;;24.90;91.80;;;;;;5094996;28;20511;-62
2022/10/16 10:45:44;;;;;;;6.53;2.13;;;24.70;92.00;;;;;;5112512;28;20043;-61
2022/10/16 10:48:25;;;;;;;5.47;1.83;;;24.60;91.90;;;;;;5094293;28;20043;-62
2022/10/16 10:50:58;;;;;;;8.07;2.10;;;25.50;91.10;;;;;;5115239;27;20136;-62
2022/10/16 10:53:37;;;;;;;9.60;2.33;;;25.70;90.20;;;;;;5112385;28;20043;-62
2022/10/16 10:56:15;;;;;;;5.95;1.75;;;25.80;89.50;;;;;;5112693;28;20411;-61
2022/10/16 10:59:02;;;;;;;8.65;2.08;;;25.40;90.00;;;;;;5113913;27;20075;-74
2022/10/16 11:01:38;;;;;;;9.40;2.13;;;24.50;90.20;;;;;;5094198;28;20448;-60
2022/10/16 11:04:30;;;;;;;9.50;2.20;;;23.80;91.50;;;;;;5113045;27;20052;-61
2022/10/16 11:07:01;;;;;;;7.05;2.15;;;23.40;92.30;;;;;;5095973;27;20055;-60
2022/10/16 11:09:35;;;;;;;7.93;1.70;;;23.60;93.00;;;;;;5111594;28;20486;-60
2022/10/16 11:12:07;;;;;;;4.53;2.25;;;24.30;91.60;;;;;;5111788;27;20595;-61
2022/10/16 11:14:41;;;;;;;7.55;2.17;;;24.80;89.90;;;;;;5093815;28;20483;-61
2022/10/16 11:17:12;;;;;;;7.45;1.90;;;25.50;88.90;;;;;;5113297;28;20097;-60
2022/10/16 11:19:45;;;;;;;9.48;2.08;;;25.90;85.80;;;;;;5097074;27;20047;-61
2022/10/16 11:22:18;;;;;;;6.93;2.20;;;26.00;84.20;;;;;;5097240;28;20058;-60
2022/10/16 11:24:52;;;;;;;10.70;2.53;;;25.50;84.30;;;;;;5112231;28;20051;-60
2022/10/16 11:27:24;;;;;;;7.72;2.15;;;25.60;83.40;;;;;;5093182;28;20044;-61
2022/10/16 11:29:59;;;;;;;7.72;1.95;;;25.70;85.40;;;;;;5093540;28;20079;-60
2022/10/16 11:32:31;;;;;;;7.30;2.15;;;25.90;83.80;;;;;;5093317;28;20052;-60
2022/10/16 11:35:03;;;;;;;6.00;1.92;;;26.30;81.20;;;;;;5093719;27;20085;-61
2022/10/16 11:37:36;;;;;;;9.68;2.65;;;25.80;80.10;;;;;;5119753;27;20491;-60
2022/10/16 11:40:20;;;;;;;8.38;2.42;;;25.70;80.80;;;;;;5096500;28;20495;-61
2022/10/16 11:42:52;;;;;;;5.50;1.90;;;25.50;81.50;;;;;;5111050;28;20093;-60
2022/10/16 11:45:29;;;;;;;7.60;2.35;;;25.70;80.20;;;;;;5110410;28;20054;-61
2022/10/16 11:48:02;;;;;;;10.45;2.00;;;26.30;80.60;;;;;;5111729;28;20558;-61
2022/10/16 11:50:35;;;;;;;8.07;2.00;;;26.70;78.20;;;;;;5093600;28;20529;-62
2022/10/16 11:53:12;;;;;;;8.73;2.33;;;26.80;77.40;;;;;;5111961;28;20134;-61
2022/10/16 11:55:41;;;;;;;10.05;2.30;;;26.50;79.90;;;;;;5094156;28;20093;-60
2022/10/16 11:58:13;;;;;;;;;;;26.10;79.70;;;;;;5094698;28;20048;-61
2022/10/16 12:00:46;;;;;;;8.32;2.22;;;25.30;80.00;;;;;;5112017;27;20344;-61
2022/10/16 12:03:20;;;;;;;6.65;2.00;;;25.50;80.60;;;;;;5111520;28;20109;-60
2022/10/16 12:06:13;;;;;;;7.05;1.90;;;26.00;79.80;;;;;;5095898;28;20051;-60
2022/10/16 12:08:41;;;;;;;6.47;1.95;;;26.50;76.50;;;;;;5110964;28;20043;-60
2022/10/16 12:11:22;;;;;;;10.23;2.08;;;25.20;76.20;;;;;;5095291;28;20093;-59
2022/10/16 12:13:50;;;;;;;7.88;2.00;;;25.10;78.20;;;;;;5111705;28;20441;-60
2022/10/16 12:16:23;;;;;;;6.10;1.88;;;24.70;79.10;;;;;;5094989;27;20509;-60
2022/10/16 12:19:03;;;;;;;7.93;2.08;;;24.80;78.30;;;;;;5092963;28;20116;-60
2022/10/16 12:21:31;;;;;;;;;;;25.20;78.90;;;;;;5112410;28;20047;-59
2022/10/16 12:24:01;;;;;;;8.15;2.08;;;25.50;79.00;;;;;;5095219;28;20379;-59
2022/10/16 12:26:32;;;;;;;7.90;2.00;;;25.10;77.10;;;;;;5110623;28;20051;-60
2022/10/16 12:29:15;;;;;;;6.72;2.25;;;25.00;78.80;;;;;;5123555;28;20043;-59
2022/10/16 12:31:46;;;;;;;8.98;2.30;;;25.00;77.50;;;;;;5131703;28;20039;-60
2022/10/16 12:34:23;;;;;;;9.63;2.38;;;25.10;80.10;;;;;;5131908;28;20048;-59
2022/10/16 12:36:50;;;;;;;7.22;2.17;;;25.50;79.10;;;;;;5114186;28;20103;-59
2022/10/16 12:39:22;;;;;;;6.10;2.30;;;25.30;79.50;;;;;;5131999;28;20100;-59
2022/10/16 12:42:01;;;;;;;9.82;2.72;;;25.20;79.50;;;;;;5115772;28;20567;-59
2022/10/16 12:44:33;;;;;;;8.43;2.15;;;24.10;82.40;;;;;;5115102;28;20051;-59
2022/10/16 12:47:00;;;;;;;9.45;2.58;;;23.90;83.20;;;;;;5115775;28;20446;-59
2022/10/16 12:49:38;;;;;;;8.80;2.60;;;23.70;83.80;;;;;;5097155;28;20040;-59
2022/10/16 12:52:05;;;;;;;9.07;2.47;;;23.90;82.50;;;;;;5115917;28;20482;-60
2022/10/16 12:54:36;;;;;;;12.57;2.30;;;24.10;83.20;;;;;;5098448;28;20047;-60
2022/10/16 12:57:25;;;;;;;6.05;2.35;;;23.90;82.40;;;;;;5133851;27;20047;-60
2022/10/16 13:00:00;;;;;;;8.77;2.25;;;23.70;81.30;;;;;;5109102;28;20483;-59
2022/10/16 13:03:18;;;;;;;3.95;1.55;;;23.60;82.10;;;;;;5115871;28;20108;-60
2022/10/16 13:05:56;;;;;;;5.35;1.75;;;22.90;79.90;;;;;;5070351;28;20060;-60